Terminal Aerodrome Forecast
Issued by NWS

Home | Current Version | Previous Version | Text Only | Print | Product List | Glossary Off
Versions: 1 2 3 4 5 6 7 8 9 10 11 12 13 14 15 16

000
FTUS43 KBIS 172300
TAFDIK
TAF
KDIK 172340Z 1800/1824 10005KT P6SM SCT300
     FM180400 13005KT P6SM BKN250
     FM181100 16007KT P6SM FEW110 BKN200
     FM181600 19008KT P6SM SCT070 BKN140
     FM181900 22009KT P6SM -RA SCT045 BKN080
     FM182200 28011KT P6SM -RA BKN045 OVC070=

USA.gov is the U.S. government's official web portal to all federal, state and local government web resources and services.